sensor_id;sensor_type;location;lat;lon;timestamp;pressure;altitude;pressure_sealevel;temperature;humidity
68433;BME280;55412;51.350;17.056;2023-12-20T00:01:50;99684.03;;;6.01;79.10
68433;BME280;55412;51.350;17.056;2023-12-20T00:04:16;99684.09;;;6.03;78.51
68433;BME280;55412;51.350;17.056;2023-12-20T00:06:41;99676.34;;;6.04;78.76
68433;BME280;55412;51.350;17.056;2023-12-20T00:09:07;99669.44;;;6.02;78.65
68433;BME280;55412;51.350;17.056;2023-12-20T00:11:33;99673.78;;;6.09;78.87
68433;BME280;55412;51.350;17.056;2023-12-20T00:13:58;99665.22;;;6.10;78.75
68433;BME280;55412;51.350;17.056;2023-12-20T00:16:24;99659.19;;;6.09;79.51
68433;BME280;55412;51.350;17.056;2023-12-20T00:18:50;99663.50;;;6.14;79.38
68433;BME280;55412;51.350;17.056;2023-12-20T00:21:16;99660.06;;;6.15;79.61
68433;BME280;55412;51.350;17.056;2023-12-20T00:23:41;99654.91;;;6.15;79.51
68433;BME280;55412;51.350;17.056;2023-12-20T00:26:07;99660.06;;;6.12;79.23
68433;BME280;55412;51.350;17.056;2023-12-20T00:28:33;99650.56;;;6.01;79.56
68433;BME280;55412;51.350;17.056;2023-12-20T00:30:58;99648.06;;;6.14;79.75
68433;BME280;55412;51.350;17.056;2023-12-20T00:33:24;99653.19;;;6.14;79.16
68433;BME280;55412;51.350;17.056;2023-12-20T00:35:50;99654.06;;;6.14;79.09
68433;BME280;55412;51.350;17.056;2023-12-20T00:38:16;99661.78;;;6.13;79.09
68433;BME280;55412;51.350;17.056;2023-12-20T00:40:41;99636.84;;;6.08;79.85
68433;BME280;55412;51.350;17.056;2023-12-20T00:43:07;99631.75;;;6.12;79.73
68433;BME280;55412;51.350;17.056;2023-12-20T00:45:33;99636.00;;;6.09;79.56
68433;BME280;55412;51.350;17.056;2023-12-20T00:47:58;99636.88;;;6.12;79.96
68433;BME280;55412;51.350;17.056;2023-12-20T00:50:24;99649.78;;;6.12;79.36
68433;BME280;55412;51.350;17.056;2023-12-20T00:52:50;99633.44;;;6.11;79.47
68433;BME280;55412;51.350;17.056;2023-12-20T00:55:16;99627.44;;;6.11;79.63
68433;BME280;55412;51.350;17.056;2023-12-20T00:57:42;99636.88;;;6.10;80.05
68433;BME280;55412;51.350;17.056;2023-12-20T01:00:09;99635.13;;;6.09;79.53
68433;BME280;55412;51.350;17.056;2023-12-20T01:02:38;99629.13;;;6.05;80.28
68433;BME280;55412;51.350;17.056;2023-12-20T01:05:06;99630.84;;;6.03;80.00
68433;BME280;55412;51.350;17.056;2023-12-20T01:07:33;99637.72;;;6.03;80.26
68433;BME280;55412;51.350;17.056;2023-12-20T01:09:58;99638.53;;;6.02;79.96
68433;BME280;55412;51.350;17.056;2023-12-20T01:12:24;99637.69;;;5.98;80.24
68433;BME280;55412;51.350;17.056;2023-12-20T01:14:50;99620.50;;;5.96;80.12
68433;BME280;55412;51.350;17.056;2023-12-20T01:17:15;99608.50;;;5.96;79.94
68433;BME280;55412;51.350;17.056;2023-12-20T01:19:41;99623.06;;;5.93;79.90
68433;BME280;55412;51.350;17.056;2023-12-20T01:22:10;99611.84;;;5.89;79.89
68433;BME280;55412;51.350;17.056;2023-12-20T01:24:35;99623.88;;;5.90;80.44
68433;BME280;55412;51.350;17.056;2023-12-20T01:27:01;99616.13;;;5.84;80.44
68433;BME280;55412;51.350;17.056;2023-12-20T01:29:27;99623.00;;;5.87;80.06
68433;BME280;55412;51.350;17.056;2023-12-20T01:31:53;99622.13;;;5.83;80.09
68433;BME280;55412;51.350;17.056;2023-12-20T01:34:18;99615.25;;;5.82;80.48
68433;BME280;55412;51.350;17.056;2023-12-20T01:36:44;99615.25;;;5.80;80.06
68433;BME280;55412;51.350;17.056;2023-12-20T01:39:10;99622.09;;;5.78;80.97
68433;BME280;55412;51.350;17.056;2023-12-20T01:41:36;99603.22;;;5.73;79.96
68433;BME280;55412;51.350;17.056;2023-12-20T01:44:02;99608.31;;;5.72;80.95
68433;BME280;55412;51.350;17.056;2023-12-20T01:46:28;99608.31;;;5.69;80.22
68433;BME280;55412;51.350;17.056;2023-12-20T01:48:54;99606.59;;;5.68;80.43
68433;BME280;55412;51.350;17.056;2023-12-20T01:51:20;99586.81;;;5.61;80.17
68433;BME280;55412;51.350;17.056;2023-12-20T01:53:46;99574.78;;;5.55;80.66
68433;BME280;55412;51.350;17.056;2023-12-20T01:56:13;99591.13;;;5.60;80.14
68433;BME280;55412;51.350;17.056;2023-12-20T01:58:46;99581.66;;;5.58;80.24
68433;BME280;55412;51.350;17.056;2023-12-20T02:01:12;99579.91;;;5.52;80.84
68433;BME280;55412;51.350;17.056;2023-12-20T02:03:43;99587.66;;;5.53;80.67
68433;BME280;55412;51.350;17.056;2023-12-20T02:06:09;99591.94;;;5.54;80.39
68433;BME280;55412;51.350;17.056;2023-12-20T02:08:36;99597.94;;;5.52;80.74
68433;BME280;55412;51.350;17.056;2023-12-20T02:11:02;99588.47;;;5.49;80.25
68433;BME280;55412;51.350;17.056;2023-12-20T02:13:28;99575.56;;;5.43;80.83
68433;BME280;55412;51.350;17.056;2023-12-20T02:15:54;99585.03;;;5.46;80.35
68433;BME280;55412;51.350;17.056;2023-12-20T02:18:21;99580.69;;;5.43;80.78
68433;BME280;55412;51.350;17.056;2023-12-20T02:20:46;99563.53;;;5.38;80.50
68433;BME280;55412;51.350;17.056;2023-12-20T02:23:12;99575.56;;;5.40;80.54
68433;BME280;55412;51.350;17.056;2023-12-20T02:25:38;99571.25;;;5.39;80.63
68433;BME280;55412;51.350;17.056;2023-12-20T02:28:04;99555.78;;;5.35;80.67
68433;BME280;55412;51.350;17.056;2023-12-20T02:30:30;99571.25;;;5.38;80.68
68433;BME280;55412;51.350;17.056;2023-12-20T02:32:56;99566.06;;;5.35;81.04
68433;BME280;55412;51.350;17.056;2023-12-20T02:35:22;99572.94;;;5.34;80.96
68433;BME280;55412;51.350;17.056;2023-12-20T02:37:47;99566.06;;;5.32;81.04
68433;BME280;55412;51.350;17.056;2023-12-20T02:40:13;99560.91;;;5.30;80.69
68433;BME280;55412;51.350;17.056;2023-12-20T02:42:39;99562.59;;;5.28;81.14
68433;BME280;55412;51.350;17.056;2023-12-20T02:45:05;99564.31;;;5.26;80.71
68433;BME280;55412;51.350;17.056;2023-12-20T02:47:31;99569.47;;;5.26;81.01
68433;BME280;55412;51.350;17.056;2023-12-20T02:49:56;99566.88;;;5.24;80.52
68433;BME280;55412;51.350;17.056;2023-12-20T02:52:23;99562.59;;;5.22;80.66
68433;BME280;55412;51.350;17.056;2023-12-20T02:54:49;99558.28;;;5.21;80.43
68433;BME280;55412;51.350;17.056;2023-12-20T02:57:15;99555.69;;;5.19;80.94
68433;BME280;55412;51.350;17.056;2023-12-20T02:59:41;99554.84;;;5.19;80.63
68433;BME280;55412;51.350;17.056;2023-12-20T03:02:07;99543.69;;;5.17;80.55
68433;BME280;55412;51.350;17.056;2023-12-20T03:04:32;99522.16;;;5.01;80.78
68433;BME280;55412;51.350;17.056;2023-12-20T03:06:58;99545.34;;;5.12;80.86
68433;BME280;55412;51.350;17.056;2023-12-20T03:09:24;99541.06;;;5.08;80.76
68433;BME280;55412;51.350;17.056;2023-12-20T03:11:50;99546.19;;;5.08;80.79
68433;BME280;55412;51.350;17.056;2023-12-20T03:14:15;99544.44;;;5.07;80.87
68433;BME280;55412;51.350;17.056;2023-12-20T03:16:41;99549.59;;;5.05;81.02
68433;BME280;55412;51.350;17.056;2023-12-20T03:19:07;99547.00;;;5.01;81.14
68433;BME280;55412;51.350;17.056;2023-12-20T03:21:32;99544.44;;;5.01;80.60
68433;BME280;55412;51.350;17.056;2023-12-20T03:23:58;99534.97;;;4.98;80.75
68433;BME280;55412;51.350;17.056;2023-12-20T03:26:23;99548.69;;;4.95;81.52
68433;BME280;55412;51.350;17.056;2023-12-20T03:28:49;99547.81;;;4.93;81.28
68433;BME280;55412;51.350;17.056;2023-12-20T03:31:15;99541.78;;;4.90;81.29
68433;BME280;55412;51.350;17.056;2023-12-20T03:33:41;99540.06;;;4.90;81.21
68433;BME280;55412;51.350;17.056;2023-12-20T03:36:06;99550.34;;;4.89;81.10
68433;BME280;55412;51.350;17.056;2023-12-20T03:38:32;99531.44;;;4.84;81.35
68433;BME280;55412;51.350;17.056;2023-12-20T03:40:58;99539.19;;;4.85;81.55
68433;BME280;55412;51.350;17.056;2023-12-20T03:43:24;99529.72;;;4.83;81.36
68433;BME280;55412;51.350;17.056;2023-12-20T03:45:49;99546.84;;;4.84;81.60
68433;BME280;55412;51.350;17.056;2023-12-20T03:48:15;99548.56;;;4.82;81.28
68433;BME280;55412;51.350;17.056;2023-12-20T03:50:41;99540.00;;;4.81;81.24
68433;BME280;55412;51.350;17.056;2023-12-20T03:53:07;99540.00;;;4.81;81.25
68433;BME280;55412;51.350;17.056;2023-12-20T03:55:33;99542.56;;;4.80;81.51
68433;BME280;55412;51.350;17.056;2023-12-20T03:57:59;99538.22;;;4.74;81.66
68433;BME280;55412;51.350;17.056;2023-12-20T04:00:24;99544.22;;;4.76;81.30
68433;BME280;55412;51.350;17.056;2023-12-20T04:02:50;99541.69;;;4.78;81.41
68433;BME280;55412;51.350;17.056;2023-12-20T04:05:16;99539.09;;;4.76;81.72
68433;BME280;55412;51.350;17.056;2023-12-20T04:07:41;99551.09;;;4.76;81.62
68433;BME280;55412;51.350;17.056;2023-12-20T04:10:07;99557.94;;;4.75;81.42
68433;BME280;55412;51.350;17.056;2023-12-20T04:12:34;99552.78;;;4.75;81.80
68433;BME280;55412;51.350;17.056;2023-12-20T04:14:59;99551.94;;;4.75;81.37
68433;BME280;55412;51.350;17.056;2023-12-20T04:17:25;99551.09;;;4.74;81.59
68433;BME280;55412;51.350;17.056;2023-12-20T04:19:51;99555.38;;;4.74;81.47
68433;BME280;55412;51.350;17.056;2023-12-20T04:22:18;99557.94;;;4.72;81.32
68433;BME280;55412;51.350;17.056;2023-12-20T04:24:44;99554.50;;;4.73;81.53
68433;BME280;55412;51.350;17.056;2023-12-20T04:27:10;99552.78;;;4.72;81.57
68433;BME280;55412;51.350;17.056;2023-12-20T04:29:36;99553.63;;;4.71;81.97
68433;BME280;55412;51.350;17.056;2023-12-20T04:32:02;99554.47;;;4.70;81.63
68433;BME280;55412;51.350;17.056;2023-12-20T04:34:27;99540.72;;;4.65;81.83
68433;BME280;55412;51.350;17.056;2023-12-20T04:36:54;99551.03;;;4.68;81.84
68433;BME280;55412;51.350;17.056;2023-12-20T04:39:19;99548.47;;;4.69;81.49
68433;BME280;55412;51.350;17.056;2023-12-20T04:41:45;99538.16;;;4.66;81.53
68433;BME280;55412;51.350;17.056;2023-12-20T04:44:13;99536.44;;;4.65;81.65
68433;BME280;55412;51.350;17.056;2023-12-20T04:46:39;99524.47;;;4.66;81.56
68433;BME280;55412;51.350;17.056;2023-12-20T04:49:05;99529.59;;;4.66;81.81
68433;BME280;55412;51.350;17.056;2023-12-20T04:51:33;99526.13;;;4.62;81.51
68433;BME280;55412;51.350;17.056;2023-12-20T04:53:59;99519.31;;;4.64;81.54
68433;BME280;55412;51.350;17.056;2023-12-20T04:56:25;99522.72;;;4.63;81.93
68433;BME280;55412;51.350;17.056;2023-12-20T04:58:51;99528.72;;;4.64;81.94
68433;BME280;55412;51.350;17.056;2023-12-20T05:01:16;99514.97;;;4.59;81.92
68433;BME280;55412;51.350;17.056;2023-12-20T05:03:42;99521.84;;;4.60;81.80
68433;BME280;55412;51.350;17.056;2023-12-20T05:06:09;99520.97;;;4.56;82.00
68433;BME280;55412;51.350;17.056;2023-12-20T05:08:34;99522.69;;;4.60;81.73
68433;BME280;55412;51.350;17.056;2023-12-20T05:11:00;99530.41;;;4.62;81.92
68433;BME280;55412;51.350;17.056;2023-12-20T05:13:26;99519.25;;;4.60;81.75
68433;BME280;55412;51.350;17.056;2023-12-20T05:15:52;99519.25;;;4.60;81.51
68433;BME280;55412;51.350;17.056;2023-12-20T05:18:17;99515.84;;;4.61;82.12
68433;BME280;55412;51.350;17.056;2023-12-20T05:20:43;99512.41;;;4.57;82.05
68433;BME280;55412;51.350;17.056;2023-12-20T05:23:09;99511.53;;;4.57;81.95
68433;BME280;55412;51.350;17.056;2023-12-20T05:25:35;99520.13;;;4.59;82.00
68433;BME280;55412;51.350;17.056;2023-12-20T05:28:00;99517.53;;;4.57;82.00
68433;BME280;55412;51.350;17.056;2023-12-20T05:30:26;99521.81;;;4.57;81.97
68433;BME280;55412;51.350;17.056;2023-12-20T05:32:52;99523.53;;;4.58;81.61
68433;BME280;55412;51.350;17.056;2023-12-20T05:35:18;99518.38;;;4.56;81.82
68433;BME280;55412;51.350;17.056;2023-12-20T05:37:44;99533.81;;;4.58;81.70
68433;BME280;55412;51.350;17.056;2023-12-20T05:40:10;99520.97;;;4.56;81.98
68433;BME280;55412;51.350;17.056;2023-12-20T05:42:36;99520.09;;;4.56;81.78
68433;BME280;55412;51.350;17.056;2023-12-20T05:45:05;99535.53;;;4.56;81.96
68433;BME280;55412;51.350;17.056;2023-12-20T05:47:31;99528.66;;;4.56;82.07
68433;BME280;55412;51.350;17.056;2023-12-20T05:49:57;99526.97;;;4.57;82.21
68433;BME280;55412;51.350;17.056;2023-12-20T05:52:22;99525.25;;;4.56;82.02
68433;BME280;55412;51.350;17.056;2023-12-20T05:54:48;99522.66;;;4.56;82.23
68433;BME280;55412;51.350;17.056;2023-12-20T05:57:14;99523.53;;;4.56;82.01
68433;BME280;55412;51.350;17.056;2023-12-20T05:59:40;99524.34;;;4.55;82.19
68433;BME280;55412;51.350;17.056;2023-12-20T06:02:06;99511.50;;;4.52;81.84
68433;BME280;55412;51.350;17.056;2023-12-20T06:04:32;99522.66;;;4.56;82.53
68433;BME280;55412;51.350;17.056;2023-12-20T06:06:58;99516.63;;;4.55;82.19
68433;BME280;55412;51.350;17.056;2023-12-20T06:09:26;99514.94;;;4.54;82.22
68433;BME280;55412;51.350;17.056;2023-12-20T06:11:52;99505.50;;;4.53;82.11
68433;BME280;55412;51.350;17.056;2023-12-20T06:14:17;99514.91;;;4.53;82.02
68433;BME280;55412;51.350;17.056;2023-12-20T06:16:43;99516.63;;;4.51;82.10
68433;BME280;55412;51.350;17.056;2023-12-20T06:19:10;99500.31;;;4.47;82.05
68433;BME280;55412;51.350;17.056;2023-12-20T06:21:36;99503.78;;;4.49;82.71
68433;BME280;55412;51.350;17.056;2023-12-20T06:24:01;99512.31;;;4.48;82.28
68433;BME280;55412;51.350;17.056;2023-12-20T06:26:27;99499.44;;;4.43;82.17
68433;BME280;55412;51.350;17.056;2023-12-20T06:28:53;99521.72;;;4.48;82.36
68433;BME280;55412;51.350;17.056;2023-12-20T06:31:19;99513.13;;;4.42;82.50
68433;BME280;55412;51.350;17.056;2023-12-20T06:33:44;99520.00;;;4.47;82.62
68433;BME280;55412;51.350;17.056;2023-12-20T06:36:13;99531.13;;;4.47;82.33
68433;BME280;55412;51.350;17.056;2023-12-20T06:38:39;99526.84;;;4.46;82.32
68433;BME280;55412;51.350;17.056;2023-12-20T06:41:05;99529.41;;;4.44;82.27
68433;BME280;55412;51.350;17.056;2023-12-20T06:43:31;99526.81;;;4.41;82.61
68433;BME280;55412;51.350;17.056;2023-12-20T06:46:00;99531.97;;;4.43;82.55
68433;BME280;55412;51.350;17.056;2023-12-20T06:48:26;99531.13;;;4.42;82.64
68433;BME280;55412;51.350;17.056;2023-12-20T06:50:52;99530.25;;;4.42;82.42
68433;BME280;55412;51.350;17.056;2023-12-20T06:53:18;99537.09;;;4.41;82.62
68433;BME280;55412;51.350;17.056;2023-12-20T06:55:43;99541.38;;;4.41;82.68
68433;BME280;55412;51.350;17.056;2023-12-20T06:58:09;99536.25;;;4.42;82.71
68433;BME280;55412;51.350;17.056;2023-12-20T07:00:35;99531.06;;;4.38;82.83
68433;BME280;55412;51.350;17.056;2023-12-20T07:03:00;99531.97;;;4.41;82.43
68433;BME280;55412;51.350;17.056;2023-12-20T07:05:27;99543.94;;;4.41;82.87
68433;BME280;55412;51.350;17.056;2023-12-20T07:07:52;99544.81;;;4.41;82.98
68433;BME280;55412;51.350;17.056;2023-12-20T07:10:19;99541.34;;;4.38;82.70
68433;BME280;55412;51.350;17.056;2023-12-20T07:12:45;99543.06;;;4.39;82.28
68433;BME280;55412;51.350;17.056;2023-12-20T07:15:11;99537.03;;;4.35;82.80
68433;BME280;55412;51.350;17.056;2023-12-20T07:17:37;99550.75;;;4.39;82.92
68433;BME280;55412;51.350;17.056;2023-12-20T07:20:03;99546.47;;;4.38;82.84
68433;BME280;55412;51.350;17.056;2023-12-20T07:22:33;99560.19;;;4.40;82.81
68433;BME280;55412;51.350;17.056;2023-12-20T07:24:59;99553.34;;;4.40;82.99
68433;BME280;55412;51.350;17.056;2023-12-20T07:27:26;99560.19;;;4.40;82.99
68433;BME280;55412;51.350;17.056;2023-12-20T07:29:52;99559.31;;;4.38;83.14
68433;BME280;55412;51.350;17.056;2023-12-20T07:32:18;99565.31;;;4.40;83.11
68433;BME280;55412;51.350;17.056;2023-12-20T07:34:44;99567.03;;;4.39;82.94
68433;BME280;55412;51.350;17.056;2023-12-20T07:37:10;99562.75;;;4.40;83.27
68433;BME280;55412;51.350;17.056;2023-12-20T07:39:40;99564.50;;;4.41;82.73
68433;BME280;55412;51.350;17.056;2023-12-20T07:42:07;99553.38;;;4.42;82.80
68433;BME280;55412;51.350;17.056;2023-12-20T07:44:33;99543.97;;;4.42;83.21
68433;BME280;55412;51.350;17.056;2023-12-20T07:46:59;99541.34;;;4.38;83.03
68433;BME280;55412;51.350;17.056;2023-12-20T07:49:26;99553.38;;;4.43;83.12
68433;BME280;55412;51.350;17.056;2023-12-20T07:51:52;99562.81;;;4.43;83.20
68433;BME280;55412;51.350;17.056;2023-12-20T07:54:18;99554.22;;;4.42;82.95
68433;BME280;55412;51.350;17.056;2023-12-20T07:56:43;99567.97;;;4.46;83.13
68433;BME280;55412;51.350;17.056;2023-12-20T07:59:09;99562.81;;;4.48;83.23
68433;BME280;55412;51.350;17.056;2023-12-20T08:01:35;99567.16;;;4.49;83.19
68433;BME280;55412;51.350;17.056;2023-12-20T08:04:01;99561.97;;;4.47;83.04
68433;BME280;55412;51.350;17.056;2023-12-20T08:06:27;99536.19;;;4.38;83.41
68433;BME280;55412;51.350;17.056;2023-12-20T08:08:52;99579.16;;;4.53;83.06
68433;BME280;55412;51.350;17.056;2023-12-20T08:11:18;99573.16;;;4.54;83.36
68433;BME280;55412;51.350;17.056;2023-12-20T08:13:44;99577.44;;;4.52;83.13
68433;BME280;55412;51.350;17.056;2023-12-20T08:16:10;99574.03;;;4.54;83.09
68433;BME280;55412;51.350;17.056;2023-12-20T08:18:39;99578.31;;;4.55;83.31
68433;BME280;55412;51.350;17.056;2023-12-20T08:21:05;99576.59;;;4.53;83.10
68433;BME280;55412;51.350;17.056;2023-12-20T08:23:33;99580.91;;;4.57;83.02
68433;BME280;55412;51.350;17.056;2023-12-20T08:26:06;99580.06;;;4.56;83.06
68433;BME280;55412;51.350;17.056;2023-12-20T08:28:32;99582.59;;;4.55;83.40
68433;BME280;55412;51.350;17.056;2023-12-20T08:30:58;99586.00;;;4.54;83.21
68433;BME280;55412;51.350;17.056;2023-12-20T08:33:24;99587.78;;;4.58;83.12
68433;BME280;55412;51.350;17.056;2023-12-20T08:35:49;99573.22;;;4.57;83.26
68433;BME280;55412;51.350;17.056;2023-12-20T08:38:15;99572.38;;;4.58;83.35
68433;BME280;55412;51.350;17.056;2023-12-20T08:40:42;99573.16;;;4.54;83.09
68433;BME280;55412;51.350;17.056;2023-12-20T08:43:07;99586.03;;;4.55;83.15
68433;BME280;55412;51.350;17.056;2023-12-20T08:45:33;99578.31;;;4.55;83.40
68433;BME280;55412;51.350;17.056;2023-12-20T08:47:59;99567.22;;;4.58;83.61
68433;BME280;55412;51.350;17.056;2023-12-20T08:50:25;99594.66;;;4.60;83.65
68433;BME280;55412;51.350;17.056;2023-12-20T08:52:51;99594.66;;;4.62;83.17
68433;BME280;55412;51.350;17.056;2023-12-20T08:55:16;99605.00;;;4.66;83.77
68433;BME280;55412;51.350;17.056;2023-12-20T08:57:43;99593.88;;;4.69;83.39
68433;BME280;55412;51.350;17.056;2023-12-20T09:00:09;99587.06;;;4.71;83.40
68433;BME280;55412;51.350;17.056;2023-12-20T09:02:35;99605.03;;;4.71;83.23
68433;BME280;55412;51.350;17.056;2023-12-20T09:05:02;99603.34;;;4.73;83.21
68433;BME280;55412;51.350;17.056;2023-12-20T09:07:28;99605.97;;;4.78;83.57
68433;BME280;55412;51.350;17.056;2023-12-20T09:09:55;99598.25;;;4.81;83.41
68433;BME280;55412;51.350;17.056;2023-12-20T09:12:21;99601.75;;;4.87;82.92
68433;BME280;55412;51.350;17.056;2023-12-20T09:14:49;99615.53;;;4.94;83.35
68433;BME280;55412;51.350;17.056;2023-12-20T09:17:18;99603.53;;;4.96;83.25
68433;BME280;55412;51.350;17.056;2023-12-20T09:19:44;99612.16;;;4.99;83.32
68433;BME280;55412;51.350;17.056;2023-12-20T09:22:10;99601.00;;;5.01;83.00
68433;BME280;55412;51.350;17.056;2023-12-20T09:24:37;99596.69;;;4.95;83.25
68433;BME280;55412;51.350;17.056;2023-12-20T09:27:05;99604.44;;;4.99;83.50
68433;BME280;55412;51.350;17.056;2023-12-20T09:29:31;99602.69;;;4.98;83.00
68433;BME280;55412;51.350;17.056;2023-12-20T09:31:57;99607.81;;;4.97;82.95
68433;BME280;55412;51.350;17.056;2023-12-20T09:34:23;99611.22;;;4.93;82.95
68433;BME280;55412;51.350;17.056;2023-12-20T09:36:49;99621.53;;;4.97;83.07
68433;BME280;55412;51.350;17.056;2023-12-20T09:39:19;99605.25;;;4.94;83.39
68433;BME280;55412;51.350;17.056;2023-12-20T09:41:51;99604.44;;;5.03;82.96
68433;BME280;55412;51.350;17.056;2023-12-20T09:44:23;99595.94;;;5.08;82.79
68433;BME280;55412;51.350;17.056;2023-12-20T09:46:50;99601.94;;;5.12;83.12
68433;BME280;55412;51.350;17.056;2023-12-20T09:49:19;99607.13;;;5.15;83.03
68433;BME280;55412;51.350;17.056;2023-12-20T09:51:46;99598.50;;;5.13;82.94
68433;BME280;55412;51.350;17.056;2023-12-20T09:54:14;99580.47;;;5.07;82.76
68433;BME280;55412;51.350;17.056;2023-12-20T09:56:41;99589.88;;;5.06;83.13
68433;BME280;55412;51.350;17.056;2023-12-20T09:59:06;99582.16;;;5.03;82.92
68433;BME280;55412;51.350;17.056;2023-12-20T10:01:33;99568.44;;;5.06;83.10
68433;BME280;55412;51.350;17.056;2023-12-20T10:04:00;99565.03;;;5.05;83.42
68433;BME280;55412;51.350;17.056;2023-12-20T10:06:26;99570.16;;;5.01;83.40
68433;BME280;55412;51.350;17.056;2023-12-20T10:08:52;99578.63;;;4.92;83.10
68433;BME280;55412;51.350;17.056;2023-12-20T10:11:18;99586.31;;;4.86;82.89
68433;BME280;55412;51.350;17.056;2023-12-20T10:13:47;99593.19;;;4.85;82.81
68433;BME280;55412;51.350;17.056;2023-12-20T10:16:13;99590.53;;;4.79;82.81
68433;BME280;55412;51.350;17.056;2023-12-20T10:18:39;99592.22;;;4.77;82.82
68433;BME280;55412;51.350;17.056;2023-12-20T10:21:06;99590.50;;;4.76;82.93
68433;BME280;55412;51.350;17.056;2023-12-20T10:23:35;99591.34;;;4.75;82.80
68433;BME280;55412;51.350;17.056;2023-12-20T10:26:02;99571.59;;;4.69;83.19
68433;BME280;55412;51.350;17.056;2023-12-20T10:28:33;99575.84;;;4.66;82.63
68433;BME280;55412;51.350;17.056;2023-12-20T10:30:59;99575.03;;;4.70;82.59
68433;BME280;55412;51.350;17.056;2023-12-20T10:33:30;99579.34;;;4.74;82.68
68433;BME280;55412;51.350;17.056;2023-12-20T10:35:57;99568.28;;;4.84;82.63
68433;BME280;55412;51.350;17.056;2023-12-20T10:38:23;99529.78;;;4.92;82.58
68433;BME280;55412;51.350;17.056;2023-12-20T10:40:54;99572.72;;;5.01;82.60
68433;BME280;55412;51.350;17.056;2023-12-20T10:43:24;99553.91;;;5.09;82.55
68433;BME280;55412;51.350;17.056;2023-12-20T10:45:52;99556.53;;;5.17;82.30
68433;BME280;55412;51.350;17.056;2023-12-20T10:48:23;99566.94;;;5.35;82.07
68433;BME280;55412;51.350;17.056;2023-12-20T10:50:55;99555.03;;;5.54;82.30
68433;BME280;55412;51.350;17.056;2023-12-20T10:53:22;99543.94;;;5.64;82.06
68433;BME280;55412;51.350;17.056;2023-12-20T10:55:51;99540.56;;;5.77;81.69
68433;BME280;55412;51.350;17.056;2023-12-20T10:58:19;99521.69;;;5.80;81.39
68433;BME280;55412;51.350;17.056;2023-12-20T11:00:47;99544.84;;;5.75;81.49
68433;BME280;55412;51.350;17.056;2023-12-20T11:03:17;99538.84;;;5.78;81.40
68433;BME280;55412;51.350;17.056;2023-12-20T11:06:00;99530.25;;;5.77;80.78
68433;BME280;55412;51.350;17.056;2023-12-20T11:08:48;99526.84;;;5.85;81.29
68433;BME280;55412;51.350;17.056;2023-12-20T11:11:27;99516.59;;;5.88;81.34
68433;BME280;55412;51.350;17.056;2023-12-20T11:14:03;99513.16;;;5.90;81.16
68433;BME280;55412;51.350;17.056;2023-12-20T11:16:37;99501.19;;;5.95;80.83
68433;BME280;55412;51.350;17.056;2023-12-20T11:19:06;99508.09;;;6.10;80.97
68433;BME280;55412;51.350;17.056;2023-12-20T11:21:32;99507.22;;;6.16;80.23
68433;BME280;55412;51.350;17.056;2023-12-20T11:23:59;99520.13;;;6.17;80.78
68433;BME280;55412;51.350;17.056;2023-12-20T11:26:29;99493.47;;;6.14;80.88
68433;BME280;55412;51.350;17.056;2023-12-20T11:34:48;99501.19;;;5.97;80.02
68433;BME280;55412;51.350;17.056;2023-12-20T11:37:14;99504.63;;;5.97;80.63
68433;BME280;55412;51.350;17.056;2023-12-20T11:39:43;99491.72;;;5.94;80.53
68433;BME280;55412;51.350;17.056;2023-12-20T11:42:12;99496.84;;;5.88;80.36
68433;BME280;55412;51.350;17.056;2023-12-20T11:44:42;99469.34;;;5.81;80.22
68433;BME280;55412;51.350;17.056;2023-12-20T11:47:12;99464.16;;;5.79;80.16
68433;BME280;55412;51.350;17.056;2023-12-20T11:49:39;99472.78;;;5.81;80.36
68433;BME280;55412;51.350;17.056;2023-12-20T11:52:05;99462.47;;;5.80;79.50
68433;BME280;55412;51.350;17.056;2023-12-20T11:54:31;99470.19;;;5.78;79.64
68433;BME280;55412;51.350;17.056;2023-12-20T11:56:57;99467.59;;;5.78;80.02
68433;BME280;55412;51.350;17.056;2023-12-20T11:59:23;99451.31;;;5.82;80.21
68433;BME280;55412;51.350;17.056;2023-12-20T12:01:52;99453.03;;;5.80;79.94
68433;BME280;55412;51.350;17.056;2023-12-20T12:04:18;99441.88;;;5.75;79.61
68433;BME280;55412;51.350;17.056;2023-12-20T12:06:44;99456.47;;;5.75;79.98
68433;BME280;55412;51.350;17.056;2023-12-20T12:09:10;99447.81;;;5.65;80.09
68433;BME280;55412;51.350;17.056;2023-12-20T12:11:36;99458.13;;;5.62;79.93
68433;BME280;55412;51.350;17.056;2023-12-20T12:14:02;99432.41;;;5.68;79.42
68433;BME280;55412;51.350;17.056;2023-12-20T12:16:29;99423.81;;;5.69;79.44
68433;BME280;55412;51.350;17.056;2023-12-20T12:18:56;99429.84;;;5.73;79.75
68433;BME280;55412;51.350;17.056;2023-12-20T12:21:22;99429.84;;;5.79;79.55
68433;BME280;55412;51.350;17.056;2023-12-20T12:23:48;99421.25;;;5.71;79.85
68433;BME280;55412;51.350;17.056;2023-12-20T12:26:14;99420.38;;;5.72;79.62
68433;BME280;55412;51.350;17.056;2023-12-20T12:28:40;99417.81;;;5.72;79.69
68433;BME280;55412;51.350;17.056;2023-12-20T12:31:07;99416.09;;;5.68;79.43
68433;BME280;55412;51.350;17.056;2023-12-20T12:33:34;99418.69;;;5.66;79.80
68433;BME280;55412;51.350;17.056;2023-12-20T12:36:01;99424.66;;;5.61;80.13
68433;BME280;55412;51.350;17.056;2023-12-20T12:38:27;99421.22;;;5.62;79.67
68433;BME280;55412;51.350;17.056;2023-12-20T12:40:54;99411.78;;;5.62;79.91
68433;BME280;55412;51.350;17.056;2023-12-20T12:43:20;99415.22;;;5.63;80.26
68433;BME280;55412;51.350;17.056;2023-12-20T12:45:48;99405.81;;;5.66;79.88
68433;BME280;55412;51.350;17.056;2023-12-20T12:48:14;99425.53;;;5.70;79.56
68433;BME280;55412;51.350;17.056;2023-12-20T12:50:40;99417.81;;;5.66;79.42
68433;BME280;55412;51.350;17.056;2023-12-20T12:53:06;99408.34;;;5.54;79.64
68433;BME280;55412;51.350;17.056;2023-12-20T12:55:32;99409.22;;;5.51;79.46
68433;BME280;55412;51.350;17.056;2023-12-20T12:57:58;99410.91;;;5.45;79.31
68433;BME280;55412;51.350;17.056;2023-12-20T13:00:24;99405.72;;;5.43;80.09
68433;BME280;55412;51.350;17.056;2023-12-20T13:02:51;99401.47;;;5.53;79.41